DNMM/LOS METAR and TAF weather

Enter ICAO airport designator
Station Type Date Time Source
DNMM METAR 2020/01/22 12:00 UTC NOAA

DNMM 221200Z 05008KT 1500 HZ NSC 34/18 Q1012 NOSIG


Station Type Date Time Source
DNMM Decoded METAR 2020/01/22 12:00 UTC NOAA

Lagos / Ikeja, Nigeria (DNMM) 06-35N 003-20E 38M
Jan 22, 2020 - 07:00 AM EST / 2020.01.22 1200 UTC
Wind: from the NE (050 degrees) at 9 MPH (8 KT):0
Visibility: less than 1 mile:0
Weather: haze
Temperature: 93 F (34 C)
Heat index: 94.6 F (34.8 C):1
Dew Point: 64 F (18 C)
Relative Humidity: 38%
Pressure (altimeter): 29.88 in. Hg (1012 hPa)
ob: DNMM 221200Z 05008KT 1500 HZ NSC 34/18 Q1012 NOSIG
cycle: 12

Station Type Date Time Source
DNMM TAF 2020/01/22 12:36 UTC NOAA

TAF TAF DNMM 221100Z 2212/2318 08007KT 1500 HZ NSC
TEMPO 2305/2307 0800 DU

Example: see airport list